createdAt,value
2023-02-06T00:02:08.876Z,65.92
2023-02-06T00:04:43.131Z,65.46
2023-02-06T00:07:16.258Z,65.58
2023-02-06T00:09:49.034Z,65.21
2023-02-06T00:12:22.294Z,66.30
2023-02-06T00:14:55.098Z,65.25
2023-02-06T00:17:27.951Z,65.87
2023-02-06T00:20:02.223Z,65.90
2023-02-06T00:22:35.607Z,65.18
2023-02-06T00:25:09.224Z,65.97
2023-02-06T00:27:42.609Z,65.60
2023-02-06T00:30:15.875Z,66.05
2023-02-06T00:32:48.966Z,66.07
2023-02-06T00:35:23.309Z,65.89
2023-02-06T00:37:56.294Z,66.04
2023-02-06T00:40:29.865Z,66.26
2023-02-06T00:43:02.821Z,66.18
2023-02-06T00:45:35.896Z,65.66
2023-02-06T00:48:10.218Z,66.01
2023-02-06T00:50:44.578Z,66.50
2023-02-06T00:53:17.720Z,65.70
2023-02-06T00:55:50.625Z,66.40
2023-02-06T00:58:23.638Z,66.25
2023-02-06T01:00:56.666Z,65.93
2023-02-06T01:03:29.698Z,66.20
2023-02-06T01:06:04.009Z,66.10
2023-02-06T01:08:37.300Z,65.56
2023-02-06T01:11:12.030Z,65.85
2023-02-06T01:13:44.965Z,65.88
2023-02-06T01:16:19.860Z,65.39
2023-02-06T01:18:52.880Z,65.25
2023-02-06T01:21:27.468Z,66.05
2023-02-06T01:24:00.393Z,65.72
2023-02-06T01:26:33.284Z,65.87
2023-02-06T01:29:06.330Z,65.83
2023-02-06T01:31:39.245Z,65.60
2023-02-06T01:34:12.660Z,65.94
2023-02-06T01:36:46.935Z,66.21
2023-02-06T01:39:19.911Z,66.19
2023-02-06T01:41:52.791Z,65.83
2023-02-06T01:44:26.640Z,66.42
2023-02-06T01:46:59.869Z,66.18
2023-02-06T01:49:37.170Z,65.61
2023-02-06T01:52:16.581Z,65.94
2023-02-06T01:54:54.626Z,66.06
2023-02-06T01:57:28.433Z,65.88
2023-02-06T02:00:05.333Z,65.90
2023-02-06T02:02:43.024Z,65.63
2023-02-06T02:05:18.855Z,65.11
2023-02-06T02:08:01.268Z,65.90
2023-02-06T02:10:34.956Z,65.64
2023-02-06T02:13:07.822Z,65.25
2023-02-06T02:15:47.717Z,65.90
2023-02-06T02:18:34.193Z,65.79
2023-02-06T02:21:43.340Z,65.20
2023-02-06T02:24:25.032Z,65.34
2023-02-06T02:27:26.788Z,65.46
2023-02-06T02:30:39.701Z,66.07
2023-02-06T02:33:45.963Z,65.88
2023-02-06T02:36:25.935Z,66.02
2023-02-06T02:39:08.210Z,65.92
2023-02-06T02:41:47.397Z,65.76
2023-02-06T02:44:28.792Z,65.30
2023-02-06T02:47:05.193Z,65.99
2023-02-06T02:49:39.355Z,65.36
2023-02-06T02:52:13.812Z,65.90
2023-02-06T02:54:46.834Z,65.83
2023-02-06T02:57:27.043Z,65.32
2023-02-06T03:00:02.460Z,65.77
2023-02-06T03:02:38.896Z,65.56
2023-02-06T03:05:13.640Z,65.33
2023-02-06T03:07:55.534Z,65.68
2023-02-06T03:10:33.621Z,65.29
2023-02-06T03:13:15.038Z,65.77
2023-02-06T03:15:56.808Z,65.50
2023-02-06T03:18:36.050Z,65.66
2023-02-06T03:21:12.454Z,65.30
2023-02-06T03:23:49.378Z,65.63
2023-02-06T03:26:27.161Z,66.01
2023-02-06T03:29:03.011Z,65.89
2023-02-06T03:31:40.223Z,66.06
2023-02-06T03:34:19.245Z,65.65
2023-02-06T03:36:54.128Z,65.25
2023-02-06T03:39:28.860Z,65.32
2023-02-06T03:42:03.535Z,64.82
2023-02-06T03:44:41.775Z,64.98
2023-02-06T03:47:17.476Z,65.34
2023-02-06T03:49:52.077Z,64.68
2023-02-06T03:52:30.262Z,64.48
2023-02-06T03:55:09.548Z,65.19
2023-02-06T03:57:45.725Z,64.93
2023-02-06T04:00:19.127Z,64.67
2023-02-06T04:02:53.700Z,64.56
2023-02-06T04:05:27.166Z,65.17
2023-02-06T04:08:00.054Z,64.98
2023-02-06T04:10:34.765Z,64.54
2023-02-06T04:13:07.710Z,64.09
2023-02-06T04:15:40.612Z,64.23
2023-02-06T04:18:13.625Z,64.01
2023-02-06T04:20:46.491Z,64.60
2023-02-06T04:23:19.737Z,64.69
2023-02-06T04:25:53.944Z,64.45
2023-02-06T04:28:27.033Z,64.66
2023-02-06T04:31:00.039Z,64.62
2023-02-06T04:33:33.027Z,65.38
2023-02-06T04:36:06.235Z,64.83
2023-02-06T04:38:39.140Z,64.83
2023-02-06T04:41:13.770Z,65.34
2023-02-06T04:43:46.625Z,65.02
2023-02-06T04:46:19.622Z,65.11
2023-02-06T04:48:52.514Z,64.86
2023-02-06T04:51:25.425Z,65.54
2023-02-06T04:53:58.339Z,64.88
2023-02-06T04:56:32.928Z,65.30
2023-02-06T04:59:06.119Z,65.15
2023-02-06T05:01:39.079Z,65.09
2023-02-06T05:04:11.987Z,64.66
2023-02-06T05:06:44.872Z,65.41
2023-02-06T05:09:17.783Z,65.32
2023-02-06T05:11:52.076Z,64.91
2023-02-06T05:14:25.187Z,64.50
2023-02-06T05:16:58.036Z,65.04
2023-02-06T05:19:30.948Z,64.97
2023-02-06T05:22:03.838Z,64.79
2023-02-06T05:24:36.787Z,64.49
2023-02-06T05:27:11.072Z,64.30
2023-02-06T05:29:43.952Z,64.36
2023-02-06T05:32:18.354Z,64.11
2023-02-06T05:34:51.313Z,64.56
2023-02-06T05:37:24.205Z,64.40
2023-02-06T05:39:59.769Z,64.05
2023-02-06T05:42:34.351Z,64.46
2023-02-06T05:45:08.188Z,64.71
2023-02-06T05:47:41.062Z,64.43
2023-02-06T05:50:14.158Z,64.93
2023-02-06T05:52:47.145Z,64.89
2023-02-06T05:55:20.360Z,65.21
2023-02-06T05:57:54.707Z,65.46
2023-02-06T06:00:27.785Z,65.39
2023-02-06T06:03:00.780Z,65.32
2023-02-06T06:05:34.200Z,65.06
2023-02-06T06:08:07.500Z,64.99
2023-02-06T06:10:40.405Z,65.40
2023-02-06T06:13:14.598Z,65.15
2023-02-06T06:15:50.688Z,65.03
2023-02-06T06:18:23.633Z,64.74
2023-02-06T06:20:56.586Z,64.58
2023-02-06T06:23:29.418Z,65.41
2023-02-06T06:26:02.390Z,64.65
2023-02-06T06:28:38.613Z,64.89
2023-02-06T06:31:12.811Z,64.91
2023-02-06T06:33:46.385Z,65.31
2023-02-06T06:36:19.408Z,65.07
2023-02-06T06:38:52.316Z,65.00
2023-02-06T06:41:25.212Z,64.89
2023-02-06T06:44:00.108Z,64.54
2023-02-06T06:46:32.992Z,65.01
2023-02-06T06:49:05.908Z,64.95
2023-02-06T06:51:38.890Z,64.76
2023-02-06T06:54:11.779Z,65.10
2023-02-06T06:56:44.627Z,65.54
2023-02-06T06:59:18.877Z,64.88
2023-02-06T07:01:52.681Z,64.74
2023-02-06T07:04:29.526Z,64.66
2023-02-06T07:07:02.396Z,64.65
2023-02-06T07:09:35.468Z,64.94
2023-02-06T07:12:08.732Z,65.24
2023-02-06T07:14:42.938Z,64.37
2023-02-06T07:17:15.803Z,65.11
2023-02-06T07:19:51.463Z,64.91
2023-02-06T07:22:25.609Z,64.59
2023-02-06T07:24:58.691Z,65.22
2023-02-06T07:27:31.547Z,64.34
2023-02-06T07:30:06.654Z,64.32
2023-02-06T07:32:40.590Z,65.05
2023-02-06T07:35:15.298Z,64.76
2023-02-06T07:37:48.187Z,64.16
2023-02-06T07:40:21.275Z,64.62
2023-02-06T07:42:54.224Z,64.19
2023-02-06T07:45:28.523Z,64.74
2023-02-06T07:48:04.533Z,64.17
2023-02-06T07:50:37.733Z,64.08
2023-02-06T07:53:10.630Z,63.97
2023-02-06T07:55:43.498Z,64.27
2023-02-06T07:58:16.422Z,64.82
2023-02-06T08:00:50.713Z,64.27
2023-02-06T08:03:23.683Z,64.12
2023-02-06T08:05:56.662Z,64.27
2023-02-06T08:08:29.614Z,63.99
2023-02-06T08:11:06.059Z,64.54
2023-02-06T08:13:39.016Z,64.08
2023-02-06T08:16:16.534Z,64.33
2023-02-06T08:18:49.472Z,64.43
2023-02-06T08:21:23.545Z,64.71
2023-02-06T08:23:57.308Z,64.72
2023-02-06T08:26:31.392Z,64.40
2023-02-06T08:29:06.518Z,64.37
2023-02-06T08:31:42.977Z,63.90
2023-02-06T08:34:16.502Z,63.82
2023-02-06T08:36:49.435Z,63.54
2023-02-06T08:39:22.352Z,62.94
2023-02-06T08:41:55.249Z,63.57
2023-02-06T08:44:28.153Z,63.74
2023-02-06T08:47:09.971Z,63.54
2023-02-06T08:49:43.432Z,63.10
2023-02-06T08:52:16.298Z,63.84
2023-02-06T08:54:51.210Z,63.03
2023-02-06T08:57:24.148Z,64.01
2023-02-06T08:59:57.104Z,63.23
2023-02-06T09:02:31.673Z,62.99
2023-02-06T09:05:05.573Z,63.67
2023-02-06T09:07:38.424Z,62.82
2023-02-06T09:10:26.713Z,63.29
2023-02-06T09:13:00.482Z,63.04
2023-02-06T09:15:33.351Z,63.30
2023-02-06T09:18:07.708Z,62.15
2023-02-06T09:20:40.657Z,62.24
2023-02-06T09:23:13.546Z,62.20
2023-02-06T09:25:46.758Z,62.30
2023-02-06T09:28:19.673Z,63.04
2023-02-06T09:30:52.705Z,62.63
2023-02-06T09:33:27.488Z,63.42
2023-02-06T09:36:04.344Z,62.88
2023-02-06T09:38:39.396Z,63.18
2023-02-06T09:41:18.103Z,63.45
2023-02-06T09:43:53.437Z,63.81
2023-02-06T09:46:31.474Z,63.36
2023-02-06T09:49:12.886Z,63.19
2023-02-06T09:52:00.652Z,62.69
2023-02-06T09:54:43.143Z,62.65
2023-02-06T09:57:20.883Z,62.49
2023-02-06T10:00:00.561Z,63.16
2023-02-06T10:02:51.688Z,62.58
2023-02-06T10:05:42.306Z,61.88
2023-02-06T10:08:20.593Z,61.56
2023-02-06T10:10:56.183Z,61.94
2023-02-06T10:13:34.036Z,61.59
2023-02-06T10:16:16.498Z,61.44
2023-02-06T10:18:53.036Z,61.18
2023-02-06T10:21:32.632Z,60.13
2023-02-06T10:24:14.846Z,61.01
2023-02-06T10:26:49.045Z,60.82
2023-02-06T10:29:26.623Z,61.30
2023-02-06T10:32:11.609Z,60.83
2023-02-06T10:35:02.250Z,60.49
2023-02-06T10:38:06.409Z,60.26
2023-02-06T10:40:47.372Z,60.85
2023-02-06T10:43:31.038Z,60.54
2023-02-06T10:46:19.935Z,60.19
2023-02-06T10:48:59.792Z,60.85
2023-02-06T10:51:34.907Z,60.96
2023-02-06T10:54:17.062Z,60.82
2023-02-06T10:56:52.478Z,61.65
2023-02-06T10:59:30.145Z,61.89
2023-02-06T11:02:19.212Z,61.41
2023-02-06T11:04:57.074Z,61.17
2023-02-06T11:07:32.778Z,61.43
2023-02-06T11:10:08.103Z,60.33
2023-02-06T11:12:44.314Z,59.62
2023-02-06T11:15:24.820Z,59.53
2023-02-06T11:17:58.006Z,59.45
2023-02-06T11:20:34.033Z,59.33
2023-02-06T11:23:17.915Z,59.48
2023-02-06T11:26:06.158Z,59.36
2023-02-06T11:28:42.750Z,59.89
2023-02-06T11:31:15.904Z,59.33
2023-02-06T11:33:51.769Z,58.36
2023-02-06T11:36:28.735Z,58.46
2023-02-06T11:39:03.881Z,57.80
2023-02-06T11:41:38.535Z,57.76
2023-02-06T11:44:15.583Z,57.99
2023-02-06T11:46:48.439Z,57.28
2023-02-06T11:49:27.002Z,56.70
2023-02-06T11:52:01.379Z,56.65
2023-02-06T11:54:35.957Z,56.45
2023-02-06T11:57:22.652Z,55.54
2023-02-06T11:59:57.352Z,56.02
2023-02-06T12:02:33.053Z,56.13
2023-02-06T12:05:13.075Z,55.52
2023-02-06T12:07:50.769Z,55.63
2023-02-06T12:10:25.344Z,55.42
2023-02-06T12:13:08.057Z,54.46
2023-02-06T12:15:47.528Z,55.67
2023-02-06T12:18:36.179Z,56.35
2023-02-06T12:21:15.845Z,56.13
2023-02-06T12:23:53.564Z,55.86
2023-02-06T12:26:29.791Z,55.35
2023-02-06T12:29:13.167Z,55.27
2023-02-06T12:31:56.810Z,55.13
2023-02-06T12:34:42.578Z,55.36
2023-02-06T12:37:21.617Z,55.15
2023-02-06T12:39:54.530Z,55.38
2023-02-06T12:42:39.468Z,54.85
2023-02-06T12:45:23.031Z,54.84
2023-02-06T12:48:00.631Z,54.96
2023-02-06T12:50:39.419Z,55.52
2023-02-06T12:53:18.675Z,55.84
2023-02-06T12:55:59.024Z,56.71
2023-02-06T12:58:47.153Z,57.27
2023-02-06T13:01:34.756Z,56.94
2023-02-06T13:04:14.228Z,57.19
2023-02-06T13:06:53.229Z,56.34
2023-02-06T13:09:30.153Z,56.49
2023-02-06T13:12:16.045Z,56.07
2023-02-06T13:14:50.982Z,57.37
2023-02-06T13:17:27.876Z,56.93
2023-02-06T13:20:07.977Z,56.48
2023-02-06T13:22:46.339Z,55.70
2023-02-06T13:25:52.508Z,56.10
2023-02-06T13:28:58.193Z,56.16
2023-02-06T13:31:34.502Z,56.62
2023-02-06T13:34:16.956Z,56.46
2023-02-06T13:36:53.463Z,56.20
2023-02-06T13:39:34.422Z,55.66
2023-02-06T13:42:29.350Z,55.35
2023-02-06T13:45:06.369Z,55.44
2023-02-06T13:48:14.159Z,54.90
2023-02-06T13:51:05.323Z,54.78
2023-02-06T13:53:54.773Z,55.51
2023-02-06T13:56:46.410Z,55.15
2023-02-06T13:59:22.951Z,55.97
2023-02-06T14:01:56.631Z,56.03
2023-02-06T14:04:33.442Z,56.00
2023-02-06T14:07:45.332Z,55.94
2023-02-06T14:10:36.143Z,55.96
2023-02-06T14:13:29.699Z,55.52
2023-02-06T14:16:18.407Z,56.12
2023-02-06T14:18:58.129Z,55.15
2023-02-06T14:21:43.403Z,55.22
2023-02-06T14:24:40.105Z,55.27
2023-02-06T14:27:29.739Z,54.66
2023-02-06T14:30:16.634Z,56.04
2023-02-06T14:32:58.323Z,55.57
2023-02-06T14:35:57.768Z,56.25
2023-02-06T14:38:58.847Z,56.00
2023-02-06T14:41:39.319Z,56.37
2023-02-06T14:44:19.173Z,55.84
2023-02-06T14:46:52.280Z,55.95
2023-02-06T14:49:32.484Z,55.36
2023-02-06T14:52:06.910Z,56.17
2023-02-06T14:54:39.989Z,55.84
2023-02-06T14:57:19.960Z,55.38
2023-02-06T14:59:55.862Z,55.51
2023-02-06T15:02:32.386Z,55.55
2023-02-06T15:05:06.748Z,55.11
2023-02-06T15:07:40.004Z,55.94
2023-02-06T15:10:16.172Z,55.88
2023-02-06T15:12:54.144Z,55.46
2023-02-06T15:15:29.229Z,55.27
2023-02-06T15:18:04.592Z,56.11
2023-02-06T15:20:40.317Z,55.80
2023-02-06T15:23:18.706Z,55.83
2023-02-06T15:26:03.964Z,56.31
2023-02-06T15:28:39.468Z,56.32
2023-02-06T15:31:19.106Z,55.68
2023-02-06T15:33:55.197Z,56.31
2023-02-06T15:36:32.366Z,56.17
2023-02-06T15:39:07.809Z,56.49
2023-02-06T15:41:42.448Z,56.28
2023-02-06T15:44:25.291Z,56.11
2023-02-06T15:46:59.199Z,56.45
2023-02-06T15:49:38.126Z,55.62
2023-02-06T15:52:12.172Z,55.97
2023-02-06T15:54:58.542Z,55.76
2023-02-06T15:57:34.095Z,55.29
2023-02-06T16:00:23.541Z,55.40
2023-02-06T16:03:02.816Z,56.12
2023-02-06T16:05:38.511Z,55.99
2023-02-06T16:08:17.581Z,55.72
2023-02-06T16:10:52.604Z,55.57
2023-02-06T16:13:28.844Z,56.01
2023-02-06T16:16:07.582Z,56.35
2023-02-06T16:18:42.653Z,56.25
2023-02-06T16:21:24.744Z,56.45
2023-02-06T16:24:08.056Z,56.83
2023-02-06T16:26:44.642Z,56.48
2023-02-06T16:29:26.164Z,56.65
2023-02-06T16:32:02.976Z,56.40
2023-02-06T16:34:40.666Z,56.77
2023-02-06T16:37:15.315Z,57.36
2023-02-06T16:39:48.721Z,57.30
2023-02-06T16:42:24.024Z,56.75
2023-02-06T16:45:01.525Z,56.88
2023-02-06T16:47:35.951Z,57.19
2023-02-06T16:50:10.536Z,57.06
2023-02-06T16:52:49.385Z,57.42
2023-02-06T16:55:24.615Z,57.31
2023-02-06T16:58:00.686Z,57.06
2023-02-06T17:00:33.752Z,57.55
2023-02-06T17:03:08.124Z,57.50
2023-02-06T17:05:41.764Z,57.48
2023-02-06T17:08:17.621Z,56.87
2023-02-06T17:10:51.297Z,57.45
2023-02-06T17:13:25.746Z,57.12
2023-02-06T17:15:58.790Z,57.25
2023-02-06T17:18:33.179Z,57.51
2023-02-06T17:21:06.414Z,57.42
2023-02-06T17:23:39.339Z,57.43
2023-02-06T17:26:14.268Z,57.79
2023-02-06T17:28:47.711Z,57.83
2023-02-06T17:31:21.870Z,57.76
2023-02-06T17:33:56.268Z,57.58
2023-02-06T17:36:32.469Z,57.54
2023-02-06T17:39:05.576Z,57.91
2023-02-06T17:41:38.540Z,57.91
2023-02-06T17:44:12.015Z,58.22
2023-02-06T17:46:45.729Z,58.18
2023-02-06T17:49:20.086Z,57.50
2023-02-06T17:51:53.074Z,57.63
2023-02-06T17:54:25.981Z,57.81
2023-02-06T17:56:59.226Z,57.76
2023-02-06T17:59:32.139Z,58.06
2023-02-06T18:02:05.251Z,57.66
2023-02-06T18:04:39.503Z,58.01
2023-02-06T18:07:12.591Z,58.20
2023-02-06T18:09:45.541Z,57.79
2023-02-06T18:12:19.036Z,58.26
2023-02-06T18:14:51.962Z,57.77
2023-02-06T18:17:24.984Z,58.23
2023-02-06T18:19:59.573Z,57.93
2023-02-06T18:22:38.822Z,58.01
2023-02-06T18:25:15.263Z,57.57
2023-02-06T18:27:48.237Z,57.99
2023-02-06T18:30:21.236Z,57.44
2023-02-06T18:32:54.195Z,57.14
2023-02-06T18:35:28.929Z,57.11
2023-02-06T18:38:01.958Z,57.40
2023-02-06T18:40:35.062Z,57.17
2023-02-06T18:43:07.676Z,57.02
2023-02-06T18:45:41.746Z,56.68
2023-02-06T18:48:15.013Z,57.32
2023-02-06T18:50:49.339Z,56.76
2023-02-06T18:53:22.272Z,57.22
2023-02-06T18:56:00.824Z,56.88
2023-02-06T18:58:34.784Z,57.49
2023-02-06T19:01:13.146Z,56.80
2023-02-06T19:03:47.299Z,57.05
2023-02-06T19:06:24.098Z,57.01
2023-02-06T19:09:00.122Z,57.03
2023-02-06T19:11:33.334Z,57.32
2023-02-06T19:14:10.000Z,57.35
2023-02-06T19:16:44.661Z,57.60
2023-02-06T19:19:18.324Z,57.45
2023-02-06T19:21:52.628Z,57.58
2023-02-06T19:24:26.314Z,57.97
2023-02-06T19:26:59.271Z,58.02
2023-02-06T19:29:36.132Z,57.99
2023-02-06T19:32:10.697Z,57.84
2023-02-06T19:34:45.295Z,58.09
2023-02-06T19:37:19.613Z,58.46
2023-02-06T19:39:52.636Z,58.12
2023-02-06T19:42:25.720Z,58.26
2023-02-06T19:44:58.718Z,58.10
2023-02-06T19:47:31.589Z,58.43
2023-02-06T19:50:04.813Z,57.97
2023-02-06T19:52:39.097Z,58.37
2023-02-06T19:55:12.347Z,58.26
2023-02-06T19:57:45.230Z,58.50
2023-02-06T20:00:18.608Z,59.01
2023-02-06T20:02:51.937Z,59.16
2023-02-06T20:05:27.181Z,59.07
2023-02-06T20:08:01.562Z,59.29
2023-02-06T20:10:34.572Z,59.29
2023-02-06T20:13:08.337Z,59.64
2023-02-06T20:15:41.453Z,59.53
2023-02-06T20:18:14.382Z,59.29
2023-02-06T20:20:48.126Z,59.33
2023-02-06T20:23:22.408Z,59.34
2023-02-06T20:25:56.031Z,59.43
2023-02-06T20:28:29.043Z,59.79
2023-02-06T20:31:09.152Z,59.96
2023-02-06T20:33:42.551Z,60.27
2023-02-06T20:36:17.916Z,60.46
2023-02-06T20:38:54.025Z,60.61
2023-02-06T20:41:29.725Z,60.57
2023-02-06T20:44:02.698Z,60.72
2023-02-06T20:46:36.908Z,60.57
2023-02-06T20:49:15.065Z,60.90
2023-02-06T20:51:49.061Z,60.82
2023-02-06T20:54:23.626Z,61.13
2023-02-06T20:56:56.618Z,60.94
2023-02-06T20:59:29.534Z,60.78
2023-02-06T21:02:02.448Z,60.83
2023-02-06T21:04:35.464Z,60.37
2023-02-06T21:07:08.669Z,60.33
2023-02-06T21:09:43.124Z,60.34
2023-02-06T21:12:16.657Z,60.59
2023-02-06T21:14:49.511Z,60.96
2023-02-06T21:17:22.493Z,60.98
2023-02-06T21:19:55.406Z,61.33
2023-02-06T21:22:28.345Z,61.50
2023-02-06T21:25:02.628Z,61.55
2023-02-06T21:27:35.870Z,61.63
2023-02-06T21:30:12.211Z,61.94
2023-02-06T21:32:45.135Z,61.78
2023-02-06T21:35:18.113Z,61.62
2023-02-06T21:37:51.080Z,61.35
2023-02-06T21:40:25.721Z,61.04
2023-02-06T21:42:58.610Z,61.07
2023-02-06T21:45:31.483Z,60.62
2023-02-06T21:48:04.928Z,60.52
2023-02-06T21:50:39.590Z,60.30
2023-02-06T21:53:12.890Z,60.30
2023-02-06T21:55:47.489Z,60.29
2023-02-06T21:58:20.481Z,60.33
2023-02-06T22:00:53.385Z,60.35
2023-02-06T22:03:26.815Z,60.23
2023-02-06T22:06:08.508Z,60.49
2023-02-06T22:08:43.078Z,60.44
2023-02-06T22:11:19.450Z,60.52
2023-02-06T22:13:53.204Z,60.39
2023-02-06T22:16:26.796Z,60.82
2023-02-06T22:19:00.783Z,61.31
2023-02-06T22:21:35.099Z,61.04
2023-02-06T22:24:09.635Z,61.19
2023-02-06T22:26:44.716Z,61.20
2023-02-06T22:29:18.624Z,61.35
2023-02-06T22:31:51.458Z,61.07
2023-02-06T22:34:24.706Z,61.87
2023-02-06T22:36:57.822Z,61.64
2023-02-06T22:39:30.833Z,61.64
2023-02-06T22:42:05.338Z,61.66
2023-02-06T22:44:38.387Z,61.58
2023-02-06T22:47:11.270Z,61.61
2023-02-06T22:49:44.480Z,61.61
2023-02-06T22:52:34.573Z,61.19
2023-02-06T22:55:09.503Z,61.56
2023-02-06T22:57:43.734Z,61.35
2023-02-06T23:00:18.568Z,61.76
2023-02-06T23:02:51.424Z,62.15
2023-02-06T23:05:25.726Z,62.32
2023-02-06T23:07:58.644Z,62.68
2023-02-06T23:10:31.505Z,62.28
2023-02-06T23:13:05.770Z,62.49
2023-02-06T23:15:41.292Z,62.21
2023-02-06T23:18:14.533Z,62.05
2023-02-06T23:20:47.551Z,62.01
2023-02-06T23:23:20.494Z,61.79
2023-02-06T23:25:53.687Z,61.82
2023-02-06T23:28:28.290Z,61.60
2023-02-06T23:31:01.353Z,61.67
2023-02-06T23:33:34.825Z,60.87
2023-02-06T23:36:10.469Z,61.32
2023-02-06T23:38:44.237Z,61.04
2023-02-06T23:41:19.822Z,61.30
2023-02-06T23:43:56.993Z,60.75
2023-02-06T23:46:32.513Z,60.82
2023-02-06T23:49:06.468Z,61.05
2023-02-06T23:51:39.433Z,60.68
2023-02-06T23:54:12.478Z,60.48
2023-02-06T23:56:45.454Z,60.65
2023-02-06T23:59:19.680Z,60.71
